Time;durP1;ratioP1;P1;durP2;ratioP2;P2;SDS_P1;SDS_P2;PMS_P1;PMS_P2;Temp;Humidity;BMP_temperature;BMP_pressure;BME280_temperature;BME280_humidity;BME280_pressure;Samples;Min_cycle;Max_cycle;Signal;HPM_P1;HPM_P2
2023/06/13 00:02:19;;;;;;;6.55;4.53;;;;;;;13.14;45.03;100197.19;5038599;28;20050;-68
2023/06/13 00:04:45;;;;;;;7.47;3.47;;;;;;;13.14;45.27;100207.88;5056967;28;20048;-67
2023/06/13 00:07:10;;;;;;;8.20;4.10;;;;;;;13.09;45.82;100207.34;5056822;28;20071;-67
2023/06/13 00:09:35;;;;;;;6.32;4.13;;;;;;;13.06;45.76;100199.53;5056860;28;20406;-66
2023/06/13 00:12:02;;;;;;;6.78;4.00;;;;;;;13.01;45.61;100201.69;5056690;28;20103;-66
2023/06/13 00:14:28;;;;;;;6.50;3.75;;;;;;;13.03;45.74;100210.47;5057619;28;20036;-70
2023/06/13 00:16:54;;;;;;;8.00;4.03;;;;;;;13.04;45.50;100204.16;5037669;28;20430;-66
2023/06/13 00:19:19;;;;;;;4.68;3.67;;;;;;;13.01;45.77;100199.88;5036690;28;20047;-64
2023/06/13 00:21:45;;;;;;;7.60;3.92;;;;;;;12.99;45.74;100193.75;5039720;28;20059;-67
2023/06/13 00:24:11;;;;;;;7.65;4.50;;;;;;;12.99;45.58;100196.44;5058263;28;20048;-67
2023/06/13 00:26:36;;;;;;;8.52;4.40;;;;;;;13.12;45.31;100201.75;5057056;28;20044;-67
2023/06/13 00:29:02;;;;;;;7.82;4.78;;;;;;;13.19;45.69;100199.53;5057237;28;20047;-67
2023/06/13 00:31:28;;;;;;;6.80;3.85;;;;;;;13.09;45.75;100204.69;5057957;28;20044;-66
2023/06/13 00:33:56;;;;;;;11.25;4.63;;;;;;;13.06;45.85;100204.91;5056692;28;20051;-66
2023/06/13 00:36:24;;;;;;;9.75;4.57;;;;;;;13.07;45.61;100191.41;5022016;28;20537;-67
2023/06/13 00:38:51;;;;;;;6.88;4.60;;;;;;;13.03;45.60;100203.28;5055764;28;20090;-65
2023/06/13 00:41:17;;;;;;;7.63;4.47;;;;;;;13.04;45.70;100196.13;5054967;28;20043;-62
2023/06/13 00:43:43;;;;;;;7.80;4.57;;;;;;;13.15;45.75;100204.25;5056374;28;20052;-66
2023/06/13 00:46:08;;;;;;;9.07;4.32;;;;;;;13.01;45.95;100204.34;5056153;28;20043;-66
2023/06/13 00:48:34;;;;;;;6.57;3.80;;;;;;;12.92;45.97;100194.31;5037867;28;20040;-66
2023/06/13 00:51:02;;;;;;;10.63;4.18;;;;;;;12.89;46.01;100199.88;5037826;28;20418;-65
2023/06/13 00:53:31;;;;;;;6.38;4.30;;;;;;;12.83;46.00;100197.69;5054691;28;20040;-66
2023/06/13 00:56:01;;;;;;;8.20;4.32;;;;;;;12.86;46.52;100218.88;5054829;28;20047;-66
2023/06/13 00:58:27;;;;;;;7.72;4.00;;;;;;;12.79;46.52;100186.31;5054891;28;20051;-66
2023/06/13 01:00:54;;;;;;;8.43;4.13;;;;;;;12.78;46.53;100200.66;5055784;28;20044;-64
2023/06/13 01:03:20;;;;;;;10.25;4.45;;;;;;;12.72;46.53;100196.63;5053919;28;20048;-65
2023/06/13 01:05:46;;;;;;;7.28;4.22;;;;;;;12.73;46.91;100193.00;5054682;28;20048;-63
2023/06/13 01:08:20;;;;;;;6.88;3.88;;;;;;;12.73;47.15;100202.84;5054493;28;20044;-66
2023/06/13 01:10:53;;;;;;;7.50;3.85;;;;;;;12.69;47.05;100196.84;5037837;28;20059;-64
2023/06/13 01:13:28;;;;;;;12.20;4.95;;;;;;;12.68;47.49;100227.22;5054613;28;20048;-64
2023/06/13 01:16:03;;;;;;;;;;;;;;;12.76;45.93;100204.41;5056081;28;20055;-64
2023/06/13 01:18:30;;;;;;;;;;;;;;;12.79;45.59;100196.16;5056045;28;19916;-64
2023/06/13 01:20:56;;;;;;;8.73;3.95;;;;;;;12.67;47.35;100198.75;5050333;28;19927;-65
2023/06/13 01:23:36;;;;;;;7.07;3.78;;;;;;;12.70;47.11;100192.34;5036989;28;20067;-66
2023/06/13 01:26:04;;;;;;;6.80;4.00;;;;;;;12.61;47.63;100193.84;5052823;28;20048;-65
2023/06/13 01:28:35;;;;;;;7.38;4.68;;;;;;;12.61;47.73;100198.34;5055209;28;20047;-66
2023/06/13 01:31:05;;;;;;;6.55;4.68;;;;;;;12.62;47.71;100181.34;5054936;28;20045;-65
2023/06/13 01:33:30;;;;;;;7.57;4.50;;;;;;;12.63;47.71;100159.84;5033221;28;20048;-64
2023/06/13 01:35:56;;;;;;;11.13;4.38;;;;;;;12.61;47.96;100193.84;5016762;28;20044;-64
2023/06/13 01:38:21;;;;;;;9.18;3.97;;;;;;;12.63;47.70;100191.94;5034825;28;20529;-65
2023/06/13 01:40:48;;;;;;;7.75;4.60;;;;;;;12.66;47.82;100197.03;5053186;28;20494;-67
2023/06/13 01:43:13;;;;;;;6.78;4.30;;;;;;;12.68;47.53;100194.25;5036831;28;20047;-67
2023/06/13 01:45:40;;;;;;;7.55;3.75;;;;;;;12.69;47.66;100196.84;5037010;28;20584;-69
2023/06/13 01:48:52;;;;;;;6.25;4.13;;;;;;;12.77;47.60;100193.59;5054915;28;20044;-67
2023/06/13 01:51:50;;;;;;;4.80;3.80;;;;;;;12.80;47.44;100197.88;5011898;28;20063;-66
2023/06/13 01:54:21;;;;;;;8.55;4.22;;;;;;;12.77;47.61;100193.59;4999252;28;20050;-66
2023/06/13 01:56:54;;;;;;;6.05;4.22;;;;;;;12.79;47.94;100197.03;4973448;28;20052;-65
2023/06/13 01:59:23;;;;;;;6.40;4.20;;;;;;;12.82;47.63;100206.66;4974153;28;20204;-66
2023/06/13 02:01:50;;;;;;;15.10;9.32;;;;;;;12.81;47.89;100208.47;4992688;28;20059;-67
2023/06/13 02:04:15;;;;;;;10.27;5.80;;;;;;;12.83;47.68;100213.72;4998760;28;20516;-66
2023/06/13 02:06:40;;;;;;;8.75;4.50;;;;;;;12.88;47.74;100201.72;5000464;28;20084;-68
2023/06/13 02:09:05;;;;;;;7.90;4.85;;;;;;;12.93;47.93;100166.59;4987568;28;20091;-68
2023/06/13 02:11:31;;;;;;;6.15;4.40;;;;;;;12.98;47.86;100199.25;4989726;28;20045;-68
2023/06/13 02:13:56;;;;;;;12.70;4.38;;;;;;;13.03;47.85;100205.97;5007575;28;20534;-68
2023/06/13 02:16:29;;;;;;;7.10;4.70;;;;;;;13.10;47.87;100211.72;4994301;28;20543;-68
2023/06/13 02:18:55;;;;;;;8.55;4.40;;;;;;;13.15;47.96;100198.03;4992347;28;20084;-67
2023/06/13 02:21:45;;;;;;;6.70;4.10;;;;;;;13.24;47.78;100206.25;4971575;28;20041;-63
2023/06/13 02:24:14;;;;;;;7.85;4.90;;;;;;;13.27;47.92;100205.16;4976372;28;20041;-64
2023/06/13 02:26:41;;;;;;;10.32;5.13;;;;;;;13.29;47.37;100206.78;5015801;28;20391;-65
2023/06/13 02:29:08;;;;;;;14.35;7.30;;;;;;;13.32;47.43;100201.16;5054827;28;20055;-62
2023/06/13 02:31:38;;;;;;;13.32;6.70;;;;;;;13.41;47.64;100196.97;5054257;28;20414;-63
2023/06/13 02:34:04;;;;;;;9.50;5.13;;;;;;;13.48;47.28;100208.94;5035934;28;20048;-63
2023/06/13 02:36:30;;;;;;;10.32;5.20;;;;;;;13.56;47.33;100203.00;5053703;28;20770;-64
2023/06/13 02:38:55;;;;;;;9.90;5.30;;;;;;;13.63;47.23;100207.81;5054686;28;20047;-64
2023/06/13 02:41:20;;;;;;;13.82;6.15;;;;;;;13.70;47.25;100195.63;5054242;28;20114;-65
2023/06/13 02:43:45;;;;;;;13.15;5.55;;;;;;;13.78;46.67;100203.09;5031458;28;20051;-64
2023/06/13 02:46:10;;;;;;;8.80;5.10;;;;;;;13.84;46.65;100205.31;5050858;28;20055;-64
2023/06/13 02:48:36;;;;;;;12.73;6.00;;;;;;;13.88;46.87;100212.16;5054422;28;20402;-65
2023/06/13 02:51:03;;;;;;;10.63;5.32;;;;;;;13.92;46.76;100210.94;5053576;28;20407;-66
2023/06/13 02:53:28;;;;;;;8.52;4.90;;;;;;;13.98;46.74;100205.13;5051864;28;20043;-66
2023/06/13 02:55:54;;;;;;;10.15;5.20;;;;;;;14.03;46.63;100202.94;5019325;28;20051;-68
2023/06/13 02:58:20;;;;;;;7.50;4.80;;;;;;;14.12;46.83;100204.03;5053828;28;20038;-66
2023/06/13 03:00:48;;;;;;;8.23;5.90;;;;;;;14.25;46.80;100206.63;5018973;28;20055;-68
2023/06/13 03:03:16;;;;;;;7.72;5.78;;;;;;;14.31;46.21;100206.16;5035662;28;20047;-69
2023/06/13 03:05:44;;;;;;;5.93;4.72;;;;;;;14.38;46.26;100207.38;5036432;28;20055;-67
2023/06/13 03:08:11;;;;;;;9.15;6.05;;;;;;;14.46;46.00;100204.97;5053028;28;20036;-68
2023/06/13 03:10:37;;;;;;;6.95;5.18;;;;;;;14.53;46.08;100211.59;5018649;28;20052;-68
2023/06/13 03:13:03;;;;;;;14.63;5.57;;;;;;;14.65;45.90;100215.16;5035110;28;20037;-69
2023/06/13 03:15:29;;;;;;;9.35;5.18;;;;;;;14.75;45.33;100206.25;5048863;28;20055;-68
2023/06/13 03:17:56;;;;;;;10.27;5.18;;;;;;;14.88;46.18;100203.44;5036110;28;20036;-68
2023/06/13 03:20:22;;;;;;;10.77;6.35;;;;;;;15.05;45.40;100213.66;5035486;28;20393;-68
2023/06/13 03:22:48;;;;;;;8.73;5.10;;;;;;;15.05;45.14;100213.66;5018395;28;20047;-69
2023/06/13 03:25:14;;;;;;;8.35;5.10;;;;;;;15.05;45.57;100212.78;5054911;28;20048;-68
2023/06/13 03:27:45;;;;;;;9.20;5.05;;;;;;;15.13;44.86;100210.31;5022538;28;20044;-67
2023/06/13 03:30:11;;;;;;;9.57;5.47;;;;;;;15.18;44.97;100219.72;5056629;28;20048;-68
2023/06/13 03:32:38;;;;;;;8.23;4.90;;;;;;;15.23;44.44;100217.53;5056431;28;20047;-69
2023/06/13 03:35:04;;;;;;;11.88;4.70;;;;;;;15.35;44.19;100214.81;5040026;28;20056;-67
2023/06/13 03:37:30;;;;;;;11.65;4.57;;;;;;;15.47;44.16;100219.16;5039571;28;20036;-68
2023/06/13 03:39:55;;;;;;;9.18;4.78;;;;;;;15.55;43.51;100236.41;5023301;28;20063;-70
2023/06/13 03:42:21;;;;;;;10.57;4.28;;;;;;;15.60;43.63;100214.50;5040079;28;20044;-69
2023/06/13 03:44:49;;;;;;;6.70;3.97;;;;;;;15.69;43.64;100212.91;5039843;28;20047;-70
2023/06/13 03:47:15;;;;;;;11.48;4.97;;;;;;;15.83;43.18;100204.53;5057986;28;20051;-70
2023/06/13 03:49:40;;;;;;;8.38;4.28;;;;;;;15.94;43.23;100217.91;5056715;28;20047;-70
2023/06/13 03:52:06;;;;;;;7.85;4.72;;;;;;;16.06;43.07;100216.03;5023300;28;20047;-70
2023/06/13 03:54:31;;;;;;;11.48;4.30;;;;;;;16.22;43.09;100216.44;5056820;28;20044;-69
2023/06/13 03:56:56;;;;;;;7.75;3.97;;;;;;;16.30;42.02;100219.31;5039682;28;20502;-69
2023/06/13 03:59:23;;;;;;;6.78;4.00;;;;;;;16.32;42.01;100193.97;5039445;28;20048;-69
2023/06/13 04:01:48;;;;;;;7.10;3.97;;;;;;;16.36;42.15;100207.19;5057409;28;20490;-69
2023/06/13 04:04:14;;;;;;;6.20;4.35;;;;;;;16.46;41.93;100200.00;5057491;28;20067;-69
2023/06/13 04:06:39;;;;;;;14.50;3.95;;;;;;;16.56;41.28;100209.00;5057260;28;20039;-69
2023/06/13 04:09:06;;;;;;;9.75;4.70;;;;;;;16.65;41.04;100229.75;5055678;28;20052;-70
2023/06/13 04:11:33;;;;;;;9.55;3.97;;;;;;;16.65;41.25;100210.91;5038743;28;20059;-69
2023/06/13 04:13:59;;;;;;;7.40;4.22;;;;;;;16.72;41.14;100203.97;5055663;28;20510;-70
2023/06/13 04:16:26;;;;;;;7.68;4.18;;;;;;;16.80;40.23;100201.47;5055963;28;20075;-70
2023/06/13 04:18:54;;;;;;;10.23;3.70;;;;;;;16.85;40.31;100204.59;5038509;28;20545;-69
2023/06/13 04:21:21;;;;;;;7.30;4.07;;;;;;;16.76;40.51;100210.81;5038849;28;20490;-70
2023/06/13 04:23:48;;;;;;;5.63;3.45;;;;;;;16.75;39.95;100202.88;5056868;28;20073;-70
2023/06/13 04:26:13;;;;;;;7.75;4.55;;;;;;;16.86;40.16;100205.47;5037839;28;20051;-71
2023/06/13 04:28:39;;;;;;;4.75;3.83;;;;;;;17.03;39.89;100196.75;5039284;28;20088;-70
2023/06/13 04:31:04;;;;;;;7.90;3.90;;;;;;;17.15;39.58;100200.19;5056822;28;20059;-70
2023/06/13 04:33:33;;;;;;;6.47;4.13;;;;;;;17.28;39.40;100207.00;5056730;28;20047;-70
2023/06/13 04:36:03;;;;;;;5.63;3.80;;;;;;;17.48;39.28;100204.34;5056097;28;20044;-70
2023/06/13 04:38:29;;;;;;;7.15;4.25;;;;;;;17.73;39.02;100206.50;5055922;28;20042;-70
2023/06/13 04:40:54;;;;;;;5.90;4.03;;;;;;;17.89;38.59;100195.16;5048356;28;20043;-69
2023/06/13 04:43:21;;;;;;;7.10;3.63;;;;;;;17.96;37.93;100191.75;5056884;28;20036;-71
2023/06/13 04:45:46;;;;;;;8.77;4.18;;;;;;;17.94;38.27;100188.38;5056847;28;20044;-70
2023/06/13 04:48:11;;;;;;;9.95;4.57;;;;;;;18.13;38.25;100204.53;5056826;28;20047;-70
2023/06/13 04:50:41;;;;;;;9.02;4.13;;;;;;;18.52;37.87;100193.63;5056512;28;20048;-70
2023/06/13 04:53:12;;;;;;;4.82;3.50;;;;;;;18.86;36.63;100184.00;5056280;28;20044;-70
2023/06/13 04:55:38;;;;;;;6.00;3.72;;;;;;;18.84;35.66;100204.09;5055021;28;20070;-71
2023/06/13 04:58:05;;;;;;;6.45;3.47;;;;;;;18.63;36.25;100174.56;5055596;28;20035;-72
2023/06/13 05:00:30;;;;;;;5.97;3.60;;;;;;;18.82;36.27;100179.06;5057863;28;20048;-71
2023/06/13 05:02:56;;;;;;;4.90;3.45;;;;;;;19.06;35.58;100167.69;5057575;28;20535;-71
2023/06/13 05:05:22;;;;;;;5.10;3.45;;;;;;;19.38;35.81;100154.53;5058012;28;20039;-71
2023/06/13 05:07:48;;;;;;;7.20;3.60;;;;;;;19.76;35.24;100166.06;5057083;28;20040;-71
2023/06/13 05:10:14;;;;;;;8.20;3.75;;;;;;;19.89;34.58;100170.09;5039267;28;20438;-72
2023/06/13 05:12:39;;;;;;;7.78;3.17;;;;;;;19.64;34.30;100165.44;5058819;28;20532;-71
2023/06/13 05:15:05;;;;;;;4.95;3.00;;;;;;;19.73;34.26;100151.03;5056605;28;20122;-71
2023/06/13 05:17:30;;;;;;;14.00;3.63;;;;;;;20.14;33.97;100151.34;5038841;28;20047;-72
2023/06/13 05:19:56;;;;;;;5.75;3.25;;;;;;;20.37;33.99;100141.69;5056437;28;20049;-72
2023/06/13 05:22:21;;;;;;;4.50;3.00;;;;;;;20.76;33.63;100087.91;5056194;28;20394;-71
2023/06/13 05:24:48;;;;;;;5.63;3.08;;;;;;;20.76;33.04;100090.59;5038397;28;20039;-72
2023/06/13 05:27:13;;;;;;;4.85;3.35;;;;;;;20.73;33.37;100084.66;5054622;28;20043;-70
2023/06/13 05:29:39;;;;;;;4.63;3.15;;;;;;;20.99;33.39;100090.84;5054441;28;20047;-70
2023/06/13 05:32:05;;;;;;;6.72;3.13;;;;;;;21.25;33.16;100093.44;5055567;28;20044;-71
2023/06/13 05:34:31;;;;;;;4.53;2.67;;;;;;;21.56;31.71;100093.63;5037314;28;20050;-70
2023/06/13 05:36:56;;;;;;;11.73;3.35;;;;;;;21.11;32.06;100085.94;5037662;28;20052;-70
2023/06/13 05:39:21;;;;;;;4.57;3.30;;;;;;;21.10;32.38;100109.50;5055990;28;20047;-69
2023/06/13 05:41:46;;;;;;;6.85;3.75;;;;;;;21.02;31.78;100087.78;5055796;28;20044;-71
2023/06/13 05:44:13;;;;;;;5.63;3.15;;;;;;;21.11;31.58;100094.06;5055925;28;20047;-70
2023/06/13 05:46:38;;;;;;;4.43;3.13;;;;;;;21.07;31.46;100107.13;5055770;28;20044;-69
2023/06/13 05:49:03;;;;;;;5.60;3.20;;;;;;;20.99;31.17;100085.44;5037370;28;20047;-71
2023/06/13 05:51:29;;;;;;;3.58;2.35;;;;;;;21.30;30.67;100102.78;5037224;28;20052;-70
2023/06/13 05:53:54;;;;;;;7.38;2.72;;;;;;;21.46;30.31;100090.25;5055867;28;20065;-69
2023/06/13 05:56:20;;;;;;;3.15;2.78;;;;;;;21.67;30.17;100080.59;5055952;28;20051;-70
2023/06/13 05:58:45;;;;;;;6.93;2.90;;;;;;;21.94;30.11;100073.94;5037852;28;20051;-70
2023/06/13 06:01:10;;;;;;;3.30;2.70;;;;;;;22.58;29.79;100068.53;5054367;28;20047;-70
2023/06/13 06:03:39;;;;;;;3.65;2.65;;;;;;;23.37;28.84;100068.25;5054197;28;20056;-71
2023/06/13 06:06:04;;;;;;;7.75;3.60;;;;;;;24.07;27.99;100062.56;5036534;28;20812;-71
2023/06/13 06:08:30;;;;;;;4.25;2.70;;;;;;;24.62;27.24;100058.53;5036854;28;20035;-71
2023/06/13 06:10:55;;;;;;;7.43;3.20;;;;;;;24.33;26.54;100053.13;5054458;28;20051;-70
2023/06/13 06:13:20;;;;;;;4.78;2.63;;;;;;;24.68;26.19;100071.44;5019177;28;20077;-71
2023/06/13 06:15:45;;;;;;;11.18;3.00;;;;;;;24.27;26.20;100059.34;5054999;28;20047;-71
2023/06/13 06:18:11;;;;;;;6.70;2.92;;;;;;;23.91;26.07;100057.31;5054618;28;20052;-69
2023/06/13 06:20:36;;;;;;;4.30;3.00;;;;;;;24.17;26.78;100049.50;5036851;28;20414;-73
2023/06/13 06:23:01;;;;;;;4.80;2.90;;;;;;;24.95;26.41;100065.28;5053989;28;20044;-70
2023/06/13 06:25:26;;;;;;;7.40;3.00;;;;;;;25.70;25.30;100053.06;5054628;28;20044;-69
2023/06/13 06:27:52;;;;;;;4.15;2.95;;;;;;;26.12;24.77;100043.91;5054915;28;20043;-71
2023/06/13 06:30:17;;;;;;;3.83;3.03;;;;;;;26.10;24.87;100043.25;5036433;28;20052;-70
2023/06/13 06:32:43;;;;;;;5.88;3.13;;;;;;;26.23;24.28;100042.50;5054838;28;20047;-70
2023/06/13 06:35:10;;;;;;;5.60;3.67;;;;;;;26.65;23.82;100053.28;5036135;28;20048;-71
2023/06/13 06:37:35;;;;;;;5.25;3.33;;;;;;;26.17;23.33;100040.59;5053774;28;20494;-70
2023/06/13 06:40:01;;;;;;;4.18;2.80;;;;;;;25.95;24.50;100050.75;5055174;28;20040;-71
2023/06/13 06:42:27;;;;;;;4.50;3.05;;;;;;;26.80;23.80;100052.28;5055093;28;20047;-71
2023/06/13 06:45:06;;;;;;;4.93;2.88;;;;;;;27.81;23.41;100043.91;5020085;28;20051;-70
2023/06/13 06:47:32;;;;;;;6.30;3.38;;;;;;;27.99;22.71;100047.91;5036916;28;20529;-71
2023/06/13 06:49:57;;;;;;;6.07;3.08;;;;;;;28.53;22.70;100036.63;5053452;28;20039;-71
2023/06/13 06:52:22;;;;;;;3.03;2.58;;;;;;;28.58;22.21;100049.66;5036756;28;20493;-70
2023/06/13 06:54:47;;;;;;;4.70;2.85;;;;;;;28.47;22.19;100046.53;5036490;28;20044;-70
2023/06/13 06:57:12;;;;;;;8.02;3.42;;;;;;;28.27;21.98;100037.53;5054380;28;20044;-71
2023/06/13 06:59:37;;;;;;;2.40;2.20;;;;;;;28.76;22.25;100041.59;5055641;28;20043;-71
2023/06/13 07:02:03;;;;;;;4.85;3.20;;;;;;;28.26;21.82;100038.59;5058932;28;20168;-70
2023/06/13 07:04:28;;;;;;;5.10;3.50;;;;;;;28.23;21.54;100032.69;5036868;28;20052;-70
2023/06/13 07:06:53;;;;;;;7.18;3.20;;;;;;;28.53;21.81;100045.69;5020491;28;20499;-71
2023/06/13 07:09:19;;;;;;;4.63;2.92;;;;;;;29.57;21.46;100030.81;5019971;28;20053;-72
2023/06/13 07:11:44;;;;;;;5.55;4.30;;;;;;;29.31;21.22;100031.81;4987250;28;20404;-71
2023/06/13 07:14:10;;;;;;;7.93;3.03;;;;;;;29.45;21.21;100029.84;5038625;28;20048;-71
2023/06/13 07:16:35;;;;;;;21.45;13.98;;;;;;;29.72;21.17;100031.31;5020312;28;20387;-70
2023/06/13 07:19:00;;;;;;;5.10;3.67;;;;;;;30.56;20.70;100021.63;5020034;28;20039;-69
2023/06/13 07:21:26;;;;;;;6.72;3.53;;;;;;;31.27;19.53;100024.44;5020076;28;20060;-71
2023/06/13 07:23:52;;;;;;;6.53;4.65;;;;;;;31.52;19.65;100020.69;5038839;28;20044;-72
2023/06/13 07:26:17;;;;;;;11.07;3.50;;;;;;;31.58;19.07;100026.09;5038409;28;20048;-71
2023/06/13 07:28:42;;;;;;;10.38;3.40;;;;;;;31.98;18.84;100015.25;5037940;28;20052;-72
2023/06/13 07:31:07;;;;;;;6.97;3.30;;;;;;;32.56;18.79;100010.75;5019532;28;20052;-70
2023/06/13 07:33:33;;;;;;;3.53;3.03;;;;;;;32.62;18.58;100001.53;5036887;28;20055;-70
2023/06/13 07:35:58;;;;;;;4.55;4.05;;;;;;;32.71;18.82;99994.56;5038570;28;20051;-71
2023/06/13 07:38:26;;;;;;;4.80;3.70;;;;;;;32.47;18.79;100002.03;5021675;28;20040;-71
2023/06/13 07:40:52;;;;;;;4.22;3.83;;;;;;;32.79;18.50;99996.91;5039685;28;20055;-71
2023/06/13 07:43:18;;;;;;;4.80;3.80;;;;;;;33.73;17.65;100013.84;5040785;28;20048;-71
2023/06/13 07:45:43;;;;;;;6.50;3.90;;;;;;;34.24;17.45;100005.25;5022452;28;20414;-71
2023/06/13 07:48:08;;;;;;;4.63;4.00;;;;;;;34.71;17.10;99999.22;5038799;28;20042;-72
2023/06/13 07:50:34;;;;;;;6.95;4.68;;;;;;;35.34;16.70;100006.03;5031747;28;20048;-73
2023/06/13 07:53:00;;;;;;;8.05;3.60;;;;;;;35.94;16.43;100007.69;5038163;28;20045;-70
2023/06/13 07:55:25;;;;;;;8.43;4.88;;;;;;;35.92;16.22;99998.78;5019291;28;20435;-72
2023/06/13 07:57:50;;;;;;;5.90;4.03;;;;;;;35.72;16.53;100005.00;5037510;28;20045;-73
2023/06/13 08:00:16;;;;;;;6.28;4.25;;;;;;;35.57;16.59;99994.59;5037375;28;20843;-69
2023/06/13 08:02:42;;;;;;;4.35;4.00;;;;;;;35.51;16.55;99990.13;5023413;28;20044;-70
2023/06/13 08:05:08;;;;;;;6.22;3.95;;;;;;;35.45;16.64;99982.84;5057475;28;20122;-70
2023/06/13 08:07:35;;;;;;;4.57;4.18;;;;;;;35.37;16.44;99988.88;5057350;28;20041;-69
2023/06/13 08:10:00;;;;;;;8.55;4.45;;;;;;;35.17;16.16;99988.69;5057192;28;20063;-70
2023/06/13 08:12:26;;;;;;;31.85;4.55;;;;;;;34.57;16.99;99989.63;5055847;28;20040;-70
2023/06/13 08:14:51;;;;;;;5.68;4.50;;;;;;;34.40;16.86;99983.34;5057116;28;20044;-70
2023/06/13 08:17:17;;;;;;;6.25;4.68;;;;;;;34.69;16.97;99968.19;5056912;28;20055;-70
2023/06/13 08:19:48;;;;;;;8.05;3.90;;;;;;;35.33;16.71;99975.84;5057384;28;20047;-70
2023/06/13 08:22:13;;;;;;;7.22;4.20;;;;;;;36.20;16.03;99972.59;5038188;28;20044;-71
2023/06/13 08:24:38;;;;;;;5.90;4.40;;;;;;;36.66;15.89;99968.09;5056918;28;20401;-69
2023/06/13 08:27:04;;;;;;;5.72;4.47;;;;;;;35.39;15.88;99986.69;5055866;28;20036;-70
2023/06/13 08:29:29;;;;;;;9.27;4.30;;;;;;;34.91;16.71;99968.19;5056721;28;20043;-70
2023/06/13 08:31:54;;;;;;;6.97;4.50;;;;;;;35.49;16.12;99964.59;5056751;28;20043;-72
2023/06/13 08:34:20;;;;;;;5.10;4.55;;;;;;;35.22;16.88;99955.44;5055659;28;20059;-71
2023/06/13 08:36:45;;;;;;;6.93;4.85;;;;;;;35.87;16.66;99963.53;5055958;28;20051;-73
2023/06/13 08:39:11;;;;;;;12.70;4.40;;;;;;;35.98;15.56;99953.31;5057108;28;20052;-72
2023/06/13 08:41:37;;;;;;;4.40;4.00;;;;;;;35.41;16.23;99950.38;5056825;28;20035;-71
2023/06/13 08:44:03;;;;;;;6.13;4.20;;;;;;;35.96;16.11;99948.03;5038868;28;20040;-71
2023/06/13 08:46:29;;;;;;;5.63;4.75;;;;;;;36.20;15.66;99934.56;5056780;28;20051;-70
2023/06/13 08:48:54;;;;;;;10.18;4.55;;;;;;;36.50;15.35;99944.97;5056993;28;20054;-70
2023/06/13 08:51:22;;;;;;;10.90;4.60;;;;;;;36.99;15.03;99950.16;5056763;28;20059;-71
2023/06/13 08:53:49;;;;;;;4.65;4.22;;;;;;;37.27;14.83;99948.78;5056888;28;20051;-71
2023/06/13 08:56:15;;;;;;;7.38;4.78;;;;;;;37.58;14.78;99932.94;5056645;28;20040;-71
2023/06/13 08:58:43;;;;;;;5.93;4.45;;;;;;;38.09;14.77;99931.78;5056360;28;20497;-71
2023/06/13 09:01:09;;;;;;;10.25;4.70;;;;;;;38.34;14.34;99922.50;5056387;28;20737;-70
2023/06/13 09:03:35;;;;;;;6.25;4.82;;;;;;;38.49;14.33;99933.53;5044127;28;20056;-71
2023/06/13 09:06:04;;;;;;;6.07;4.90;;;;;;;38.85;14.22;99925.00;5035891;28;20044;-71
2023/06/13 09:08:29;;;;;;;5.50;5.00;;;;;;;39.19;14.18;99923.09;5036356;28;20048;-70
2023/06/13 09:10:56;;;;;;;7.20;5.00;;;;;;;39.29;13.80;99913.00;5034922;28;20063;-71
2023/06/13 09:13:23;;;;;;;6.93;5.35;;;;;;;39.41;13.71;99913.47;5035862;28;20422;-70
2023/06/13 09:15:48;;;;;;;6.40;5.75;;;;;;;39.87;13.71;99899.91;5035898;28;20063;-71
2023/06/13 09:18:16;;;;;;;9.30;5.20;;;;;;;39.97;13.55;99910.13;5018645;28;20044;-71
2023/06/13 09:20:41;;;;;;;9.95;6.53;;;;;;;39.79;13.37;99898.56;5035020;28;20513;-73
2023/06/13 09:23:07;;;;;;;8.50;5.60;;;;;;;39.03;13.66;99906.81;5034266;28;20402;-71
2023/06/13 09:25:35;;;;;;;6.25;5.47;;;;;;;38.49;14.63;99902.88;5036053;28;20036;-70
2023/06/13 09:28:37;;;;;;;7.85;5.10;;;;;;;39.16;14.32;99912.56;5035941;28;20949;-71
2023/06/13 09:31:02;;;;;;;7.00;5.18;;;;;;;38.91;14.44;99892.38;5034199;28;20044;-71
2023/06/13 09:33:28;;;;;;;6.35;5.28;;;;;;;39.38;13.73;99883.34;5017700;28;20044;-70
2023/06/13 09:35:53;;;;;;;6.55;5.93;;;;;;;39.68;13.59;99882.22;5034219;28;20040;-70
2023/06/13 09:38:23;;;;;;;6.32;5.72;;;;;;;40.13;13.11;99881.72;5017356;28;20529;-71
2023/06/13 09:40:54;;;;;;;9.15;5.93;;;;;;;38.43;13.96;99881.75;5017256;28;20048;-70
2023/06/13 09:43:21;;;;;;;5.95;5.45;;;;;;;38.51;14.22;99866.38;5034971;28;20505;-73
2023/06/13 09:45:51;;;;;;;7.35;5.43;;;;;;;38.71;14.09;99865.47;5036152;28;20055;-74
2023/06/13 09:48:19;;;;;;;11.07;5.55;;;;;;;38.58;14.47;99869.75;5035711;28;20040;-71
2023/06/13 09:50:45;;;;;;;6.53;5.38;;;;;;;38.57;14.04;99859.72;5000964;28;20557;-72
2023/06/13 09:53:10;;;;;;;7.13;6.15;;;;;;;38.27;14.07;99857.88;5035497;28;20049;-70
2023/06/13 09:55:36;;;;;;;6.97;5.57;;;;;;;38.61;14.00;99854.38;5034555;28;20084;-71
2023/06/13 09:58:05;;;;;;;7.20;5.38;;;;;;;39.40;13.58;99856.81;5034893;28;20040;-70
2023/06/13 10:00:31;;;;;;;8.70;5.65;;;;;;;39.32;13.48;99851.03;5017285;28;20045;-70
2023/06/13 10:02:56;;;;;;;10.68;5.70;;;;;;;38.12;14.04;99844.91;5034353;28;20446;-71
2023/06/13 10:05:23;;;;;;;9.00;5.15;;;;;;;36.91;15.05;99858.97;5054344;28;20048;-70
2023/06/13 10:07:48;;;;;;;10.25;5.68;;;;;;;37.27;14.53;99849.53;5036670;28;20055;-70
2023/06/13 10:10:13;;;;;;;6.22;5.40;;;;;;;38.00;14.50;99854.66;5036488;28;20059;-71
2023/06/13 10:12:45;;;;;;;10.57;5.82;;;;;;;38.73;14.23;99852.91;5037019;28;20048;-70
2023/06/13 10:15:18;;;;;;;6.72;5.43;;;;;;;40.34;13.61;99848.78;5054635;28;20058;-71
2023/06/13 10:17:45;;;;;;;6.20;5.60;;;;;;;40.46;13.39;99840.78;5054900;28;20130;-72
2023/06/13 10:20:15;;;;;;;6.63;5.65;;;;;;;40.78;13.25;99847.59;5054906;28;20035;-72
2023/06/13 10:22:40;;;;;;;10.88;6.35;;;;;;;40.59;12.85;99845.63;5055314;28;20047;-71
2023/06/13 10:25:08;;;;;;;6.65;5.72;;;;;;;39.90;13.50;99838.72;5053944;28;20044;-71
2023/06/13 10:27:41;;;;;;;9.18;6.55;;;;;;;40.81;13.16;99838.59;5053427;28;20031;-71
2023/06/13 10:30:18;;;;;;;8.35;6.20;;;;;;;39.75;13.03;99835.25;5054206;28;20605;-69
2023/06/13 10:33:18;;;;;;;14.95;12.55;;;;;;;36.46;15.22;99831.94;5035760;28;20111;-69
2023/06/13 10:36:02;;;;;;;6.95;5.22;;;;;;;32.61;17.87;99834.19;5042887;28;20040;-70
2023/06/13 10:38:55;;;;;;;5.85;4.90;;;;;;;31.77;18.08;99883.50;5054423;28;20498;-70
2023/06/13 10:42:02;;;;;;;5.90;4.30;;;;;;;29.31;19.33;99891.75;5052919;28;20050;-69
2023/06/13 10:44:40;;;;;;;6.38;4.13;;;;;;;27.45;21.63;99838.88;5054384;28;20044;-70
2023/06/13 10:47:07;;;;;;;7.85;4.30;;;;;;;25.91;22.35;99825.44;5054207;28;20531;-70
2023/06/13 10:49:37;;;;;;;9.00;4.38;;;;;;;24.66;23.47;99824.56;5035329;28;20091;-69
2023/06/13 10:52:03;;;;;;;18.05;4.18;;;;;;;23.68;24.72;99814.22;5051833;28;20059;-69
2023/06/13 10:54:28;;;;;;;6.00;4.25;;;;;;;23.26;25.29;99799.38;5049454;28;20040;-71
2023/06/13 10:57:00;;;;;;;6.95;4.18;;;;;;;23.11;26.17;99809.41;5053884;28;20040;-70
2023/06/13 10:59:35;;;;;;;8.60;5.03;;;;;;;22.99;26.17;99813.63;5053793;28;20040;-71
2023/06/13 11:02:00;;;;;;;8.23;4.68;;;;;;;23.12;25.31;99801.06;5053474;28;20044;-70
2023/06/13 11:04:28;;;;;;;6.18;4.07;;;;;;;22.63;26.38;99811.53;5035524;28;20040;-70
2023/06/13 11:07:25;;;;;;;5.25;3.70;;;;;;;22.60;25.61;99802.88;5054217;28;20047;-70
2023/06/13 11:10:11;;;;;;;6.43;4.05;;;;;;;22.15;26.08;99796.44;5053215;28;20490;-70
2023/06/13 11:12:37;;;;;;;4.70;4.13;;;;;;;21.78;27.74;99799.88;5054089;28;20040;-72
2023/06/13 11:15:04;;;;;;;5.38;3.90;;;;;;;21.91;27.54;99786.53;5035811;28;20395;-70
2023/06/13 11:17:33;;;;;;;6.45;4.30;;;;;;;21.72;28.00;99781.56;5048905;28;20051;-65
2023/06/13 11:19:59;;;;;;;7.57;4.55;;;;;;;21.64;28.26;99779.75;5035997;28;20044;-65
2023/06/13 11:22:24;;;;;;;5.28;4.25;;;;;;;21.56;27.83;99776.22;5052292;28;20061;-66
2023/06/13 11:24:53;;;;;;;7.40;4.07;;;;;;;21.46;29.12;99773.72;5038095;28;20051;-65
2023/06/13 11:27:18;;;;;;;4.63;3.80;;;;;;;21.48;28.74;99770.84;5052770;28;20047;-70
2023/06/13 11:29:43;;;;;;;6.38;4.55;;;;;;;21.55;29.16;99774.56;5054317;28;20044;-66